Time;durP1;ratioP1;P1;durP2;ratioP2;P2;SDS_P1;SDS_P2;PMS_P1;PMS_P2;Temp;Humidity;BMP_temperature;BMP_pressure;BME280_temperature;BME280_humidity;BME280_pressure;Samples;Min_cycle;Max_cycle;Signal;HPM_P1;HPM_P2
2022/07/09 00:02:21;;;;;;;3.07;2.77;;;;;;;;;;5018711;28;20210;-67
2022/07/09 00:04:49;;;;;;;4.40;2.60;;;;;;;;;;5032159;28;20207;-67
2022/07/09 00:07:16;;;;;;;3.63;2.47;;;;;;;;;;5027644;28;20226;-66
2022/07/09 00:09:43;;;;;;;4.23;2.20;;;;;;;;;;5022853;28;20269;-67
2022/07/09 00:12:11;;;;;;;4.20;2.73;;;;;;;;;;5024352;28;20206;-67
2022/07/09 00:14:38;;;;;;;4.90;2.67;;;;;;;;;;5020923;28;20199;-67
2022/07/09 00:17:06;;;;;;;3.13;2.27;;;;;;;;;;5020180;28;20203;-68
2022/07/09 00:19:33;;;;;;;3.83;2.30;;;;;;;;;;5026176;28;20229;-65
2022/07/09 00:22:00;;;;;;;5.50;2.57;;;;;;;;;;5021293;28;20210;-66
2022/07/09 00:24:29;;;;;;;5.97;2.73;;;;;;;;;;5025728;28;20897;-67
2022/07/09 00:26:56;;;;;;;4.90;2.90;;;;;;;;;;5022483;28;20346;-66
2022/07/09 00:29:24;;;;;;;4.73;3.40;;;;;;;;;;5016151;28;20203;-66
2022/07/09 00:31:51;;;;;;;5.03;3.20;;;;;;;;;;5028266;28;20260;-67
2022/07/09 00:34:18;;;;;;;4.47;3.47;;;;;;;;;;5016945;28;20627;-67
2022/07/09 00:36:46;;;;;;;5.07;3.10;;;;;;;;;;5022094;28;20705;-66
2022/07/09 00:39:13;;;;;;;3.53;2.90;;;;;;;;;;5023817;28;20207;-67
2022/07/09 00:41:41;;;;;;;4.10;3.10;;;;;;;;;;5021456;28;20215;-68
2022/07/09 00:44:08;;;;;;;5.43;2.50;;;;;;;;;;5019738;28;20207;-67
2022/07/09 00:46:35;;;;;;;5.23;2.60;;;;;;;;;;5022810;28;20288;-67
2022/07/09 00:49:05;;;;;;;4.30;3.10;;;;;;;;;;5026101;28;20285;-67
2022/07/09 00:51:33;;;;;;;3.60;2.73;;;;;;;;;;5021716;28;20204;-67
2022/07/09 00:54:00;;;;;;;2.93;2.73;;;;;;;;;;5022486;28;20203;-66
2022/07/09 00:56:31;;;;;;;3.33;2.33;;;;;;;;;;5021828;28;20215;-66
2022/07/09 00:58:59;;;;;;;3.03;2.57;;;;;;;;;;5018339;28;20238;-67
2022/07/09 01:01:27;;;;;;;6.27;2.93;;;;;;;;;;5027297;28;20245;-67
2022/07/09 01:03:54;;;;;;;4.63;2.80;;;;;;;;;;5024855;28;20237;-67
2022/07/09 01:06:21;;;;;;;3.27;2.67;;;;;;;;;;5022758;28;20249;-67
2022/07/09 01:08:49;;;;;;;3.80;2.60;;;;;;;;;;5025826;28;20219;-67
2022/07/09 01:11:16;;;;;;;5.20;2.50;;;;;;;;;;5020364;28;20304;-67
2022/07/09 01:13:44;;;;;;;3.13;2.77;;;;;;;;;;5020033;28;20260;-67
2022/07/09 01:16:15;;;;;;;5.77;2.67;;;;;;;;;;5019078;28;20222;-66
2022/07/09 01:18:46;;;;;;;3.50;2.70;;;;;;;;;;5027187;28;20210;-67
2022/07/09 01:21:14;;;;;;;4.43;2.73;;;;;;;;;;5024502;28;20206;-67
2022/07/09 01:23:42;;;;;;;2.80;2.60;;;;;;;;;;5014419;28;20257;-65
2022/07/09 01:26:09;;;;;;;3.60;2.50;;;;;;;;;;5029002;28;20658;-67
2022/07/09 01:28:37;;;;;;;4.40;2.73;;;;;;;;;;5014269;28;20605;-65
2022/07/09 01:31:04;;;;;;;3.73;2.90;;;;;;;;;;5015301;28;20218;-67
2022/07/09 01:33:33;;;;;;;3.43;2.70;;;;;;;;;;5012707;28;20207;-67
2022/07/09 01:36:00;;;;;;;3.23;2.37;;;;;;;;;;5018868;28;20227;-65
2022/07/09 01:38:27;;;;;;;6.03;3.10;;;;;;;;;;5018346;28;20223;-67
2022/07/09 01:40:56;;;;;;;4.50;2.83;;;;;;;;;;5026983;28;20211;-68
2022/07/09 01:43:24;;;;;;;3.00;2.73;;;;;;;;;;5023896;28;20217;-67
2022/07/09 01:45:51;;;;;;;5.27;2.90;;;;;;;;;;5016837;28;20222;-67
2022/07/09 01:48:19;;;;;;;4.77;2.83;;;;;;;;;;5013040;28;20223;-67
2022/07/09 01:50:46;;;;;;;4.97;3.03;;;;;;;;;;5022426;28;20203;-67
2022/07/09 01:53:13;;;;;;;4.30;2.93;;;;;;;;;;5017490;28;20265;-67
2022/07/09 01:55:41;;;;;;;4.77;3.20;;;;;;;;;;5020969;28;21093;-67
2022/07/09 01:58:08;;;;;;;3.13;2.83;;;;;;;;;;5023598;28;20214;-67
2022/07/09 02:00:36;;;;;;;3.73;2.70;;;;;;;;;;5015252;28;20660;-67
2022/07/09 02:03:03;;;;;;;5.30;3.03;;;;;;;;;;5026182;28;20207;-67
2022/07/09 02:05:30;;;;;;;2.90;2.57;;;;;;;;;;5018727;28;20230;-67
2022/07/09 02:07:58;;;;;;;5.03;3.07;;;;;;;;;;5013806;28;20647;-67
2022/07/09 02:10:25;;;;;;;3.87;2.83;;;;;;;;;;5012122;28;20203;-67
2022/07/09 02:12:53;;;;;;;5.93;3.17;;;;;;;;;;5026034;28;20202;-66
2022/07/09 02:15:21;;;;;;;3.10;2.80;;;;;;;;;;5023469;28;20224;-67
2022/07/09 02:17:49;;;;;;;3.17;2.83;;;;;;;;;;5025503;28;20226;-67
2022/07/09 02:20:16;;;;;;;4.57;2.70;;;;;;;;;;5018873;28;20279;-67
2022/07/09 02:22:44;;;;;;;4.30;3.03;;;;;;;;;;5016460;28;20242;-67
2022/07/09 02:25:11;;;;;;;3.13;2.80;;;;;;;;;;5013533;28;20241;-66
2022/07/09 02:27:38;;;;;;;5.20;2.90;;;;;;;;;;5020130;28;20288;-67
2022/07/09 02:30:06;;;;;;;5.33;2.53;;;;;;;;;;5023153;28;20249;-66
2022/07/09 02:32:34;;;;;;;5.13;3.03;;;;;;;;;;5014110;28;20212;-65
2022/07/09 02:35:01;;;;;;;3.53;2.40;;;;;;;;;;5027055;28;20218;-68
2022/07/09 02:37:28;;;;;;;3.93;2.97;;;;;;;;;;5040904;28;20226;-67
2022/07/09 02:39:56;;;;;;;4.43;3.10;;;;;;;;;;5029275;28;20210;-67
2022/07/09 02:42:23;;;;;;;5.37;3.20;;;;;;;;;;5017980;28;20229;-67
2022/07/09 02:44:50;;;;;;;4.77;2.80;;;;;;;;;;5018665;28;20570;-67
2022/07/09 02:47:18;;;;;;;2.70;2.50;;;;;;;;;;5031481;28;20231;-67
2022/07/09 02:49:45;;;;;;;3.73;3.30;;;;;;;;;;5027544;28;20241;-65
2022/07/09 02:52:13;;;;;;;4.13;3.03;;;;;;;;;;5015656;28;20203;-67
2022/07/09 02:54:40;;;;;;;3.93;3.17;;;;;;;;;;5022618;28;20302;-66
2022/07/09 02:57:08;;;;;;;3.53;3.00;;;;;;;;;;5014758;28;20203;-67
2022/07/09 02:59:35;;;;;;;3.70;2.70;;;;;;;;;;5016841;28;20653;-66
2022/07/09 03:02:02;;;;;;;5.27;3.07;;;;;;;;;;5023289;28;20206;-67
2022/07/09 03:04:31;;;;;;;3.37;3.07;;;;;;;;;;5013526;28;20206;-67
2022/07/09 03:06:58;;;;;;;3.63;2.60;;;;;;;;;;5016956;28;20584;-67
2022/07/09 03:09:27;;;;;;;4.40;2.87;;;;;;;;;;5028382;28;20308;-67
2022/07/09 03:11:54;;;;;;;3.73;2.50;;;;;;;;;;5013618;28;20249;-67
2022/07/09 03:14:21;;;;;;;3.50;2.80;;;;;;;;;;5014021;28;20698;-67
2022/07/09 03:16:49;;;;;;;6.93;2.50;;;;;;;;;;5019583;28;20226;-67
2022/07/09 03:19:16;;;;;;;3.70;2.90;;;;;;;;;;5020089;28;20708;-67
2022/07/09 03:21:43;;;;;;;4.40;2.90;;;;;;;;;;5022542;28;20199;-67
2022/07/09 03:24:12;;;;;;;2.93;2.73;;;;;;;;;;5020749;28;20210;-67
2022/07/09 03:26:39;;;;;;;2.80;2.60;;;;;;;;;;5022289;28;20254;-67
2022/07/09 03:29:07;;;;;;;2.83;2.63;;;;;;;;;;5004508;28;20223;-67
2022/07/09 03:31:34;;;;;;;3.13;2.77;;;;;;;;;;5013299;28;20249;-67
2022/07/09 03:34:01;;;;;;;3.73;2.50;;;;;;;;;;5005709;28;20845;-67
2022/07/09 03:36:30;;;;;;;2.43;2.23;;;;;;;;;;5022850;28;20223;-67
2022/07/09 03:38:58;;;;;;;4.10;2.83;;;;;;;;;;5025839;28;20198;-67
2022/07/09 03:41:25;;;;;;;3.47;2.90;;;;;;;;;;5026940;28;20341;-67
2022/07/09 03:43:52;;;;;;;3.30;2.33;;;;;;;;;;5024308;28;20249;-67
2022/07/09 03:46:20;;;;;;;3.80;2.67;;;;;;;;;;5021339;28;20230;-67
2022/07/09 03:48:48;;;;;;;6.17;3.10;;;;;;;;;;5019705;28;20269;-67
2022/07/09 03:51:16;;;;;;;3.30;2.47;;;;;;;;;;5023203;28;20206;-67
2022/07/09 03:53:43;;;;;;;4.07;2.77;;;;;;;;;;5027031;28;20669;-67
2022/07/09 03:56:12;;;;;;;3.73;2.60;;;;;;;;;;5023064;28;20230;-67
2022/07/09 03:58:39;;;;;;;3.33;2.60;;;;;;;;;;5023727;28;20211;-67
2022/07/09 04:01:06;;;;;;;3.50;2.53;;;;;;;;;;5017829;28;20741;-67
2022/07/09 04:03:34;;;;;;;3.23;2.53;;;;;;;;;;5022679;28;20211;-66
2022/07/09 04:06:01;;;;;;;3.30;2.60;;;;;;;;;;5024416;28;20727;-66
2022/07/09 04:08:28;;;;;;;4.50;2.40;;;;;;;;;;5017950;28;20230;-66
2022/07/09 04:10:56;;;;;;;2.63;2.40;;;;;;;;;;5023903;28;20264;-66
2022/07/09 04:13:23;;;;;;;3.20;2.40;;;;;;;;;;5023082;28;20204;-66
2022/07/09 04:15:51;;;;;;;3.17;2.43;;;;;;;;;;5016834;28;20222;-66
2022/07/09 04:18:18;;;;;;;5.37;2.50;;;;;;;;;;5016321;28;20203;-66
2022/07/09 04:20:45;;;;;;;2.73;2.53;;;;;;;;;;5025291;28;20211;-67
2022/07/09 04:23:13;;;;;;;2.80;2.20;;;;;;;;;;5022346;28;20211;-66
2022/07/09 04:25:40;;;;;;;4.07;2.70;;;;;;;;;;5021224;28;20222;-66
2022/07/09 04:28:07;;;;;;;5.07;2.87;;;;;;;;;;5016888;28;20234;-67
2022/07/09 04:30:35;;;;;;;3.53;2.60;;;;;;;;;;5019283;28;20207;-67
2022/07/09 04:33:02;;;;;;;3.00;2.70;;;;;;;;;;5018003;28;20577;-67
2022/07/09 04:35:30;;;;;;;7.67;3.37;;;;;;;;;;5010789;28;20238;-66
2022/07/09 04:37:57;;;;;;;2.67;2.47;;;;;;;;;;5024134;28;20253;-67
2022/07/09 04:40:25;;;;;;;3.10;2.60;;;;;;;;;;5017584;28;20202;-67
2022/07/09 04:42:52;;;;;;;4.77;2.40;;;;;;;;;;5016174;28;20208;-67
2022/07/09 04:45:19;;;;;;;3.57;2.77;;;;;;;;;;5022182;28;20712;-67
2022/07/09 04:47:47;;;;;;;7.57;3.20;;;;;;;;;;5022008;28;20215;-65
2022/07/09 04:50:14;;;;;;;3.10;2.60;;;;;;;;;;5021671;28;20707;-67
2022/07/09 04:52:41;;;;;;;5.57;3.07;;;;;;;;;;5025266;28;20207;-67
2022/07/09 04:55:10;;;;;;;3.20;2.90;;;;;;;;;;5008579;28;20273;-65
2022/07/09 04:57:37;;;;;;;3.10;2.57;;;;;;;;;;5020588;28;20215;-67
2022/07/09 05:00:05;;;;;;;4.20;2.50;;;;;;;;;;5020507;28;20210;-67
2022/07/09 05:02:32;;;;;;;7.63;2.97;;;;;;;;;;5027081;28;20199;-67
2022/07/09 05:05:00;;;;;;;3.07;2.77;;;;;;;;;;5018430;28;20223;-66
2022/07/09 05:07:27;;;;;;;5.90;3.20;;;;;;;;;;5027706;28;20261;-67
2022/07/09 05:09:54;;;;;;;3.13;2.83;;;;;;;;;;5025626;28;20281;-67
2022/07/09 05:12:22;;;;;;;4.10;2.70;;;;;;;;;;5024947;28;20623;-67
2022/07/09 05:14:49;;;;;;;4.60;2.40;;;;;;;;;;5026011;28;20715;-66
2022/07/09 05:17:17;;;;;;;5.30;2.73;;;;;;;;;;5029347;28;20199;-66
2022/07/09 05:19:44;;;;;;;3.03;2.47;;;;;;;;;;5017492;28;20317;-67
2022/07/09 05:22:12;;;;;;;4.47;2.23;;;;;;;;;;5024924;28;20206;-66
2022/07/09 05:24:40;;;;;;;3.80;3.17;;;;;;;;;;5024067;28;20202;-66
2022/07/09 05:27:09;;;;;;;2.30;2.10;;;;;;;;;;5029783;28;20207;-66
2022/07/09 05:29:37;;;;;;;4.40;2.40;;;;;;;;;;5025800;28;20222;-67
2022/07/09 05:32:04;;;;;;;3.20;2.10;;;;;;;;;;5022370;28;20257;-66
2022/07/09 05:34:32;;;;;;;2.67;1.73;;;;;;;;;;5013385;28;20214;-67
2022/07/09 05:37:00;;;;;;;6.68;1.67;;;;;;;;;;5021284;28;20207;-67
2022/07/09 05:39:27;;;;;;;3.92;1.58;;;;;;;;;;5023887;28;20210;-67
2022/07/09 05:41:54;;;;;;;3.17;1.48;;;;;;;;;;5022312;28;20218;-67
2022/07/09 05:44:21;;;;;;;2.90;1.45;;;;;;;;;;5020180;28;20207;-67
2022/07/09 05:46:51;;;;;;;2.70;1.45;;;;;;;;;;5025392;28;20261;-67
2022/07/09 05:49:18;;;;;;;3.15;1.45;;;;;;;;;;5020736;28;20218;-67
2022/07/09 05:51:46;;;;;;;3.10;1.40;;;;;;;;;;5022244;28;20209;-66
2022/07/09 05:54:13;;;;;;;4.30;1.73;;;;;;;;;;5033468;28;20702;-66
2022/07/09 05:56:41;;;;;;;1.33;1.15;;;;;;;;;;5028068;28;20226;-65
2022/07/09 05:59:08;;;;;;;2.38;1.45;;;;;;;;;;5029065;28;20345;-67
2022/07/09 06:01:39;;;;;;;1.63;1.30;;;;;;;;;;5031599;28;20616;-67
2022/07/09 06:04:07;;;;;;;3.42;1.60;;;;;;;;;;5028519;28;20734;-67
2022/07/09 06:06:35;;;;;;;3.08;1.60;;;;;;;;;;5030589;28;20237;-67
2022/07/09 06:09:02;;;;;;;1.60;1.38;;;;;;;;;;5033883;28;20227;-67
2022/07/09 06:11:30;;;;;;;4.40;1.60;;;;;;;;;;5028357;28;20215;-67
2022/07/09 06:13:57;;;;;;;2.53;1.50;;;;;;;;;;5032751;28;20253;-67
2022/07/09 06:16:25;;;;;;;3.50;1.63;;;;;;;;;;5031238;28;20226;-67
2022/07/09 06:18:52;;;;;;;1.45;1.30;;;;;;;;;;5025336;28;20215;-67
2022/07/09 06:21:20;;;;;;;5.28;1.48;;;;;;;;;;5030716;28;20687;-66
2022/07/09 06:23:47;;;;;;;4.18;1.38;;;;;;;;;;5024701;28;20289;-67
2022/07/09 06:26:15;;;;;;;4.78;1.60;;;;;;;;;;5032161;28;20896;-66
2022/07/09 06:28:42;;;;;;;4.07;2.00;;;;;;;;;;5028287;28;20227;-65
2022/07/09 06:31:09;;;;;;;3.22;1.98;;;;;;;;;;5034907;28;20202;-67
2022/07/09 06:33:36;;;;;;;3.58;1.50;;;;;;;;;;5026908;28;20202;-65
2022/07/09 06:36:04;;;;;;;3.15;1.55;;;;;;;;;;5027172;28;20247;-67
2022/07/09 06:38:32;;;;;;;3.80;1.60;;;;;;;;;;5024699;28;20222;-67
2022/07/09 06:40:59;;;;;;;3.28;1.77;;;;;;;;;;5025214;28;20212;-67
2022/07/09 06:43:27;;;;;;;4.45;1.70;;;;;;;;;;5024594;28;20253;-67
2022/07/09 06:45:54;;;;;;;2.10;1.40;;;;;;;;;;5030018;28;21406;-65
2022/07/09 06:48:22;;;;;;;9.18;4.80;;;;;;;;;;5030414;28;20237;-67
2022/07/09 06:50:49;;;;;;;4.30;1.90;;;;;;;;;;5028648;28;20262;-67
2022/07/09 06:53:16;;;;;;;3.13;1.80;;;;;;;;;;5035650;28;20664;-67
2022/07/09 06:55:44;;;;;;;3.03;1.40;;;;;;;;;;5020938;28;20231;-67
2022/07/09 06:58:11;;;;;;;3.67;1.65;;;;;;;;;;5029250;28;20246;-67
2022/07/09 07:00:38;;;;;;;5.18;1.55;;;;;;;;;;5027777;28;20206;-67
2022/07/09 07:03:06;;;;;;;3.38;1.40;;;;;;;;;;5031769;28;20207;-66
2022/07/09 07:05:33;;;;;;;5.13;1.60;;;;;;;;;;5022976;28;20227;-69
2022/07/09 07:08:00;;;;;;;3.83;1.85;;;;;;;;;;5017665;28;20253;-67
2022/07/09 07:10:28;;;;;;;5.22;1.58;;;;;;;;;;5011007;28;20232;-67
2022/07/09 07:12:55;;;;;;;3.88;1.70;;;;;;;;;;5016202;28;20214;-67
2022/07/09 07:15:23;;;;;;;4.95;1.60;;;;;;;;;;5025427;28;20225;-66
2022/07/09 07:17:50;;;;;;;5.25;1.58;;;;;;;;;;5018974;28;20211;-66
2022/07/09 07:20:25;;;;;;;4.88;1.75;;;;;;;;;;5017413;28;20812;-67
2022/07/09 07:22:52;;;;;;;4.30;1.67;;;;;;;;;;5020866;28;20227;-66
2022/07/09 07:25:19;;;;;;;3.17;1.70;;;;;;;;;;5017752;28;20557;-66
2022/07/09 07:27:47;;;;;;;3.15;1.80;;;;;;;;;;5024045;28;20253;-66
2022/07/09 07:30:14;;;;;;;3.92;2.10;;;;;;;;;;5019607;28;20319;-67
2022/07/09 07:32:41;;;;;;;5.35;2.33;;;;;;;;;;5024649;28;20207;-67
2022/07/09 07:35:09;;;;;;;6.05;2.90;;;;;;;;;;5022571;28;20230;-67
2022/07/09 07:37:36;;;;;;;2.10;1.42;;;;;;;;;;5023750;28;20257;-69
2022/07/09 07:40:04;;;;;;;3.92;1.30;;;;;;;;;;5024608;28;20202;-68
2022/07/09 07:42:37;;;;;;;2.17;1.38;;;;;;;;;;5018496;28;20751;-67
2022/07/09 07:45:04;;;;;;;4.70;1.60;;;;;;;;;;5016437;28;20230;-67
2022/07/09 07:47:32;;;;;;;3.58;1.40;;;;;;;;;;5004607;28;20668;-67
2022/07/09 07:49:59;;;;;;;1.83;1.50;;;;;;;;;;5014002;28;20314;-67
2022/07/09 07:52:27;;;;;;;3.30;1.73;;;;;;;;;;5014180;28;20199;-67
2022/07/09 07:54:54;;;;;;;2.33;1.40;;;;;;;;;;5007691;28;20231;-65
2022/07/09 07:57:22;;;;;;;4.50;1.58;;;;;;;;;;5013842;28;20203;-68
2022/07/09 07:59:49;;;;;;;2.97;1.55;;;;;;;;;;5019824;28;20213;-67
2022/07/09 08:02:16;;;;;;;6.40;1.70;;;;;;;;;;5010197;28;20479;-66
2022/07/09 08:04:44;;;;;;;2.17;1.42;;;;;;;;;;5017495;28;20214;-67
2022/07/09 08:07:12;;;;;;;2.13;1.40;;;;;;;;;;5018997;28;20206;-66
2022/07/09 08:09:39;;;;;;;3.28;1.52;;;;;;;;;;5009820;28;20241;-67
2022/07/09 08:12:09;;;;;;;4.25;1.50;;;;;;;;;;5013198;28;20304;-67
2022/07/09 08:14:36;;;;;;;2.63;1.42;;;;;;;;;;5013866;28;20199;-65
2022/07/09 08:17:04;;;;;;;2.92;1.30;;;;;;;;;;5008831;28;20202;-66
2022/07/09 08:19:31;;;;;;;3.30;1.40;;;;;;;;;;5007856;28;20269;-66
2022/07/09 08:21:59;;;;;;;3.35;1.70;;;;;;;;;;5011301;28;20211;-68
2022/07/09 08:24:27;;;;;;;1.98;1.25;;;;;;;;;;5014509;28;20199;-67
2022/07/09 08:26:54;;;;;;;4.55;1.75;;;;;;;;;;5018037;28;20223;-67
2022/07/09 08:29:22;;;;;;;3.05;1.40;;;;;;;;;;5014323;28;20235;-65
2022/07/09 08:31:50;;;;;;;2.17;1.13;;;;;;;;;;5020585;28;20298;-65
2022/07/09 08:34:17;;;;;;;3.20;1.50;;;;;;;;;;5013982;28;20220;-64
2022/07/09 08:36:45;;;;;;;4.57;1.50;;;;;;;;;;5018261;28;20231;-65
2022/07/09 08:39:12;;;;;;;2.92;1.23;;;;;;;;;;5014890;28;20203;-68
2022/07/09 08:41:39;;;;;;;4.25;1.40;;;;;;;;;;5012593;28;20214;-67
2022/07/09 08:44:10;;;;;;;3.35;1.48;;;;;;;;;;5014314;28;22101;-67
2022/07/09 08:46:38;;;;;;;4.28;1.35;;;;;;;;;;5005018;28;20241;-67
2022/07/09 08:49:08;;;;;;;1.65;1.20;;;;;;;;;;5018484;28;20225;-67
2022/07/09 08:51:36;;;;;;;1.33;1.20;;;;;;;;;;5012118;28;20249;-66
2022/07/09 08:54:04;;;;;;;2.13;1.30;;;;;;;;;;5027193;28;20210;-67
2022/07/09 08:56:31;;;;;;;1.35;1.17;;;;;;;;;;5019866;28;20263;-66
2022/07/09 08:58:58;;;;;;;3.70;1.30;;;;;;;;;;5017076;28;20202;-67
2022/07/09 09:01:27;;;;;;;3.95;1.40;;;;;;;;;;5016016;28;22309;-66
2022/07/09 09:03:55;;;;;;;2.08;1.30;;;;;;;;;;5028551;28;20230;-67
2022/07/09 09:06:23;;;;;;;2.47;1.05;;;;;;;;;;5017376;28;20284;-67
2022/07/09 09:08:54;;;;;;;2.38;1.58;;;;;;;;;;5015874;28;20218;-67
2022/07/09 09:11:22;;;;;;;2.35;1.05;;;;;;;;;;5015786;28;20214;-67
2022/07/09 09:13:50;;;;;;;2.40;1.20;;;;;;;;;;5005201;28;20208;-66
2022/07/09 09:16:19;;;;;;;2.03;1.20;;;;;;;;;;5010229;28;20230;-68
2022/07/09 09:18:48;;;;;;;3.55;1.42;;;;;;;;;;5016499;28;20215;-66
2022/07/09 09:21:16;;;;;;;4.25;1.65;;;;;;;;;;5009658;28;20261;-67
2022/07/09 09:23:48;;;;;;;3.45;1.70;;;;;;;;;;5019714;28;20207;-66
2022/07/09 09:26:26;;;;;;;2.60;1.52;;;;;;;;;;5015837;28;20274;-67
2022/07/09 09:28:54;;;;;;;1.88;1.02;;;;;;;;;;5019213;28;20206;-67
2022/07/09 09:31:22;;;;;;;3.38;1.85;;;;;;;;;;5025721;28;20199;-66
2022/07/09 09:33:51;;;;;;;5.88;2.70;;;;;;;;;;5017515;28;20210;-67
2022/07/09 09:36:38;;;;;;;1.77;1.20;;;;;;;;;;5012396;28;20235;-67
2022/07/09 09:39:23;;;;;;;2.70;1.10;;;;;;;;;;5021335;28;20211;-67
2022/07/09 09:41:54;;;;;;;3.90;2.25;;;;;;;;;;5019931;28;20222;-68
2022/07/09 09:44:26;;;;;;;1.83;1.13;;;;;;;;;;5013081;28;20211;-66
2022/07/09 09:46:54;;;;;;;1.35;0.88;;;;;;;;;;5027892;28;20239;-67
2022/07/09 09:49:21;;;;;;;3.53;1.13;;;;;;;;;;5012572;28;20775;-67
2022/07/09 09:51:56;;;;;;;2.83;1.20;;;;;;;;;;5015320;28;20578;-67
2022/07/09 09:54:24;;;;;;;1.13;0.82;;;;;;;;;;5014805;28;20211;-67
2022/07/09 09:56:52;;;;;;;2.00;1.05;;;;;;;;;;5024911;28;20610;-67
2022/07/09 09:59:20;;;;;;;1.67;0.90;;;;;;;;;;5012702;28;20499;-67
2022/07/09 10:01:47;;;;;;;1.20;1.10;;;;;;;;;;5024555;28;20553;-66
2022/07/09 10:04:16;;;;;;;5.43;1.10;;;;;;;;;;5024678;28;20211;-67
2022/07/09 10:06:43;;;;;;;1.98;1.05;;;;;;;;;;5014167;28;20234;-68
2022/07/09 10:09:12;;;;;;;1.58;1.15;;;;;;;;;;5018933;28;20207;-65
2022/07/09 10:11:44;;;;;;;2.38;0.95;;;;;;;;;;5020178;28;20210;-69
2022/07/09 10:14:35;;;;;;;1.70;1.02;;;;;;;;;;5010015;28;20735;-67
2022/07/09 10:17:15;;;;;;;2.28;1.13;;;;;;;;;;4997270;28;20241;-67
2022/07/09 10:19:57;;;;;;;1.67;1.10;;;;;;;;;;5020011;28;20210;-68
2022/07/09 10:22:45;;;;;;;2.42;1.20;;;;;;;;;;5016976;28;20202;-68
2022/07/09 10:25:23;;;;;;;1.27;0.80;;;;;;;;;;5020469;28;20218;-67
2022/07/09 10:27:51;;;;;;;3.22;1.02;;;;;;;;;;5004622;28;20206;-68
2022/07/09 10:30:28;;;;;;;2.58;1.20;;;;;;;;;;5021341;28;20241;-67
2022/07/09 10:33:07;;;;;;;0.90;0.90;;;;;;;;;;5023901;28;20202;-67
2022/07/09 10:35:41;;;;;;;2.50;1.10;;;;;;;;;;5012024;28;20222;-68
2022/07/09 10:38:08;;;;;;;2.25;1.13;;;;;;;;;;5014885;28;20260;-67
2022/07/09 10:40:55;;;;;;;1.15;0.95;;;;;;;;;;5015287;28;21097;-66
2022/07/09 10:43:37;;;;;;;1.45;1.00;;;;;;;;;;5015187;28;20294;-67
2022/07/09 10:46:12;;;;;;;1.17;0.90;;;;;;;;;;5017469;28;20249;-67
2022/07/09 10:48:39;;;;;;;2.33;1.00;;;;;;;;;;5015245;28;20214;-68
2022/07/09 10:51:07;;;;;;;1.85;1.20;;;;;;;;;;5013279;28;20219;-68
2022/07/09 10:53:34;;;;;;;1.38;1.10;;;;;;;;;;5021574;28;20237;-67
2022/07/09 10:56:02;;;;;;;3.38;1.17;;;;;;;;;;5021233;28;20270;-66
2022/07/09 10:58:30;;;;;;;2.42;1.00;;;;;;;;;;5020754;28;20198;-67
2022/07/09 11:00:59;;;;;;;0.82;0.82;;;;;;;;;;5021938;28;20203;-67
2022/07/09 11:03:28;;;;;;;1.15;0.82;;;;;;;;;;5022312;28;20207;-66
2022/07/09 11:05:59;;;;;;;1.58;1.27;;;;;;;;;;4999632;28;20233;-66
2022/07/09 11:08:26;;;;;;;1.65;0.90;;;;;;;;;;5018629;28;20218;-66
2022/07/09 11:10:53;;;;;;;4.85;2.97;;;;;;;;;;5021241;28;20232;-66
2022/07/09 11:13:25;;;;;;;3.35;2.03;;;;;;;;;;5026425;28;20225;-66
2022/07/09 11:15:59;;;;;;;1.10;1.00;;;;;;;;;;5016124;28;20296;-67
2022/07/09 11:18:27;;;;;;;0.82;0.80;;;;;;;;;;5020318;28;20209;-66
2022/07/09 11:20:55;;;;;;;3.05;1.00;;;;;;;;;;5020807;28;20230;-67
2022/07/09 11:23:23;;;;;;;2.17;0.90;;;;;;;;;;5017602;28;20217;-67
2022/07/09 11:25:50;;;;;;;1.55;1.10;;;;;;;;;;5021369;28;20905;-67
2022/07/09 11:28:21;;;;;;;1.77;0.98;;;;;;;;;;5018154;28;20269;-67
2022/07/09 11:30:58;;;;;;;1.52;0.90;;;;;;;;;;5018529;28;20230;-66
2022/07/09 11:33:27;;;;;;;3.10;1.00;;;;;;;;;;5021577;28;20211;-67
2022/07/09 11:35:54;;;;;;;1.10;1.00;;;;;;;;;;5024650;28;20223;-67
2022/07/09 11:38:21;;;;;;;1.42;1.10;;;;;;;;;;5020232;28;20199;-67
2022/07/09 11:40:59;;;;;;;0.95;0.90;;;;;;;;;;5022198;28;20206;-67
2022/07/09 11:43:26;;;;;;;2.15;1.13;;;;;;;;;;5016874;28;20210;-67
2022/07/09 11:45:54;;;;;;;1.92;1.20;;;;;;;;;;5016027;28;20646;-67
2022/07/09 11:48:21;;;;;;;1.23;0.93;;;;;;;;;;5024484;28;20226;-67
2022/07/09 11:50:49;;;;;;;1.20;1.10;;;;;;;;;;5018947;28;20234;-67
2022/07/09 11:53:25;;;;;;;2.63;1.10;;;;;;;;;;5014559;28;20252;-67
2022/07/09 11:56:03;;;;;;;2.03;1.05;;;;;;;;;;5023407;28;20226;-68
2022/07/09 11:58:31;;;;;;;2.63;1.42;;;;;;;;;;5022077;28;20222;-67
2022/07/09 12:00:59;;;;;;;1.45;1.10;;;;;;;;;;5026062;28;20295;-67
2022/07/09 12:03:29;;;;;;;3.45;1.10;;;;;;;;;;5025381;28;20333;-67
2022/07/09 12:05:57;;;;;;;1.45;1.10;;;;;;;;;;5031714;28;20234;-67
2022/07/09 12:08:31;;;;;;;3.47;1.30;;;;;;;;;;5015592;28;20207;-67
2022/07/09 12:11:00;;;;;;;1.38;1.02;;;;;;;;;;5015851;28;20221;-67
2022/07/09 12:13:29;;;;;;;1.95;1.00;;;;;;;;;;5025095;28;20203;-67
2022/07/09 12:15:56;;;;;;;2.15;0.80;;;;;;;;;;5017541;28;20229;-66
2022/07/09 12:18:24;;;;;;;1.35;1.00;;;;;;;;;;5018163;28;20203;-66
2022/07/09 12:20:51;;;;;;;2.60;1.10;;;;;;;;;;5027349;28;20301;-67
2022/07/09 12:23:19;;;;;;;1.55;1.20;;;;;;;;;;5021386;28;20203;-67
2022/07/09 12:25:46;;;;;;;2.05;0.90;;;;;;;;;;5023496;28;20229;-66
2022/07/09 12:28:14;;;;;;;1.58;1.20;;;;;;;;;;5013311;28;20233;-66
2022/07/09 12:30:41;;;;;;;2.85;2.03;;;;;;;;;;5022682;28;20234;-66
2022/07/09 12:33:08;;;;;;;1.05;0.93;;;;;;;;;;5019995;28;20203;-65
2022/07/09 12:35:36;;;;;;;2.10;1.00;;;;;;;;;;5017711;28;20274;-66
2022/07/09 12:38:03;;;;;;;3.15;1.10;;;;;;;;;;5018125;28;20563;-67
2022/07/09 12:40:31;;;;;;;1.77;1.38;;;;;;;;;;5019539;28;20266;-66
2022/07/09 12:42:58;;;;;;;1.10;0.98;;;;;;;;;;5023399;28;20692;-67
2022/07/09 12:45:25;;;;;;;1.42;1.00;;;;;;;;;;5023322;28;20223;-67
2022/07/09 12:47:53;;;;;;;1.67;0.80;;;;;;;;;;5019772;28;20219;-68
2022/07/09 12:50:20;;;;;;;1.48;0.90;;;;;;;;;;5021646;28;20315;-67
2022/07/09 12:52:48;;;;;;;1.80;0.93;;;;;;;;;;5014998;28;20206;-66
2022/07/09 12:55:16;;;;;;;1.65;1.08;;;;;;;;;;5019086;28;20228;-66
2022/07/09 12:57:44;;;;;;;1.30;1.10;;;;;;;;;;5021470;28;20688;-66
2022/07/09 13:00:13;;;;;;;1.45;1.00;;;;;;;;;;5023742;28;20213;-67
2022/07/09 13:02:43;;;;;;;0.90;0.90;;;;;;;;;;5021243;28;20256;-67
2022/07/09 13:05:14;;;;;;;1.63;0.93;;;;;;;;;;5017950;28;20249;-66
2022/07/09 13:07:41;;;;;;;2.78;1.00;;;;;;;;;;5018078;28;20207;-66
2022/07/09 13:10:09;;;;;;;1.02;0.75;;;;;;;;;;5020171;28;20223;-66
2022/07/09 13:12:36;;;;;;;1.00;1.00;;;;;;;;;;5016531;28;20583;-67
2022/07/09 13:15:04;;;;;;;1.10;1.00;;;;;;;;;;5017577;28;20234;-67
2022/07/09 13:17:32;;;;;;;1.75;1.10;;;;;;;;;;5019934;28;20226;-67
2022/07/09 13:20:00;;;;;;;1.52;0.95;;;;;;;;;;5020255;28;20281;-67
2022/07/09 13:22:27;;;;;;;1.15;0.90;;;;;;;;;;5021131;28;20217;-67
2022/07/09 13:24:54;;;;;;;2.65;1.10;;;;;;;;;;5017815;28;20222;-66
2022/07/09 13:27:22;;;;;;;1.13;0.80;;;;;;;;;;5019575;28;20218;-67
2022/07/09 13:29:50;;;;;;;1.60;0.90;;;;;;;;;;5019416;28;20203;-66
2022/07/09 13:32:17;;;;;;;1.10;0.98;;;;;;;;;;5011361;28;20206;-66
2022/07/09 13:34:50;;;;;;;2.00;1.70;;;;;;;;;;5009749;28;20208;-67
2022/07/09 13:37:18;;;;;;;1.83;0.98;;;;;;;;;;5017262;28;20207;-68
2022/07/09 13:39:46;;;;;;;2.88;1.02;;;;;;;;;;5014093;28;20199;-68
2022/07/09 13:42:13;;;;;;;2.47;1.00;;;;;;;;;;5014605;28;20245;-68
2022/07/09 13:44:42;;;;;;;1.02;0.88;;;;;;;;;;5013169;28;20267;-67
2022/07/09 13:47:10;;;;;;;0.90;0.90;;;;;;;;;;5014268;28;20728;-67
2022/07/09 13:49:39;;;;;;;2.00;0.90;;;;;;;;;;5013975;28;20215;-67
2022/07/09 13:52:13;;;;;;;1.20;0.88;;;;;;;;;;5021047;28;20223;-67
2022/07/09 13:54:40;;;;;;;0.82;0.80;;;;;;;;;;5023687;28;20211;-67
2022/07/09 13:57:07;;;;;;;1.50;1.05;;;;;;;;;;5022744;28;20203;-67
2022/07/09 13:59:35;;;;;;;2.08;0.88;;;;;;;;;;5016633;28;20210;-66
2022/07/09 14:02:03;;;;;;;3.38;0.80;;;;;;;;;;5012226;28;20210;-67
2022/07/09 14:04:30;;;;;;;2.10;0.80;;;;;;;;;;5020344;28;20206;-67
2022/07/09 14:06:58;;;;;;;1.25;0.82;;;;;;;;;;5017301;28;20911;-66
2022/07/09 14:09:25;;;;;;;1.10;0.77;;;;;;;;;;5017864;28;20218;-68
2022/07/09 14:11:53;;;;;;;3.53;0.98;;;;;;;;;;5010526;28;20235;-67
2022/07/09 14:14:20;;;;;;;1.05;1.05;;;;;;;;;;5020427;28;20203;-67
2022/07/09 14:16:47;;;;;;;1.05;1.02;;;;;;;;;;5017550;28;20273;-66
2022/07/09 14:19:15;;;;;;;1.90;1.00;;;;;;;;;;5017548;28;20215;-66
2022/07/09 14:21:42;;;;;;;2.53;1.48;;;;;;;;;;5011411;28;20218;-66
2022/07/09 14:24:12;;;;;;;3.20;1.40;;;;;;;;;;5018452;28;20207;-67
2022/07/09 14:26:41;;;;;;;1.48;0.95;;;;;;;;;;5014463;28;20265;-67
2022/07/09 14:29:14;;;;;;;1.70;1.10;;;;;;;;;;5026796;28;20211;-68
2022/07/09 14:31:49;;;;;;;3.97;1.42;;;;;;;;;;5019709;28;20235;-67
2022/07/09 14:34:16;;;;;;;1.10;1.00;;;;;;;;;;5021581;28;20211;-67
2022/07/09 14:36:44;;;;;;;3.58;1.85;;;;;;;;;;5028215;28;20226;-67
2022/07/09 14:39:11;;;;;;;3.33;1.80;;;;;;;;;;5018106;28;20214;-67
2022/07/09 14:41:39;;;;;;;1.80;1.40;;;;;;;;;;5015338;28;20214;-66
2022/07/09 14:44:06;;;;;;;3.20;1.70;;;;;;;;;;5029240;28;20219;-67
2022/07/09 14:46:33;;;;;;;3.65;1.20;;;;;;;;;;5005206;28;20239;-66
2022/07/09 14:49:01;;;;;;;2.00;1.10;;;;;;;;;;5003999;28;20210;-68
2022/07/09 14:51:28;;;;;;;1.58;1.30;;;;;;;;;;5009440;28;21010;-67